Time;durP1;ratioP1;P1;durP2;ratioP2;P2;SDS_P1;SDS_P2;PMS_P1;PMS_P2;Temp;Humidity;BMP_temperature;BMP_pressure;BME280_temperature;BME280_humidity;BME280_pressure;Samples;Min_cycle;Max_cycle;Signal;HPM_P1;HPM_P2
2022/04/10 00:01:19;;;;;;;13.65;2.78;;;3.40;99.90;;;;;;4973211;28;20046;-66
2022/04/10 00:03:46;;;;;;;14.93;4.28;;;3.40;99.90;;;;;;4974664;28;20058;-65
2022/04/10 00:06:13;;;;;;;7.57;2.05;;;3.40;99.90;;;;;;4976468;28;20158;-67
2022/04/10 00:08:40;;;;;;;15.30;3.42;;;3.40;99.90;;;;;;4970975;28;20078;-66
2022/04/10 00:11:07;;;;;;;8.50;2.20;;;3.40;99.90;;;;;;4978422;28;20122;-65
2022/04/10 00:13:34;;;;;;;10.27;3.13;;;3.40;99.90;;;;;;4982781;28;20214;-66
2022/04/10 00:16:02;;;;;;;8.73;2.92;;;3.30;99.90;;;;;;4981666;28;20050;-64
2022/04/10 00:18:30;;;;;;;10.38;2.70;;;3.30;99.90;;;;;;4974078;28;20822;-64
2022/04/10 00:20:57;;;;;;;6.72;2.65;;;3.30;99.90;;;;;;4972253;28;20711;-65
2022/04/10 00:23:25;;;;;;;12.70;2.40;;;3.30;99.90;;;;;;4982545;28;20485;-64
2022/04/10 00:25:53;;;;;;;8.75;3.10;;;3.20;99.90;;;;;;4984142;28;20046;-64
2022/04/10 00:28:20;;;;;;;7.82;2.85;;;3.20;99.90;;;;;;4981289;28;20078;-65
2022/04/10 00:30:47;;;;;;;9.60;2.78;;;3.20;99.90;;;;;;4968052;28;20420;-64
2022/04/10 00:33:14;;;;;;;13.15;3.30;;;3.20;99.90;;;;;;4976482;28;20059;-64
2022/04/10 00:35:41;;;;;;;6.93;2.15;;;3.10;99.90;;;;;;4973015;28;20057;-66
2022/04/10 00:38:08;;;;;;;8.55;2.60;;;3.10;99.90;;;;;;5002789;28;20051;-65
2022/04/10 00:40:35;;;;;;;8.73;3.13;;;3.10;99.90;;;;;;4982674;28;20050;-65
2022/04/10 00:43:02;;;;;;;8.55;2.55;;;3.10;99.90;;;;;;4981093;28;20047;-66
2022/04/10 00:45:29;;;;;;;6.78;3.08;;;3.10;99.90;;;;;;4979223;28;20073;-68
2022/04/10 00:47:56;;;;;;;9.68;2.80;;;3.00;99.90;;;;;;4976180;28;20248;-65
2022/04/10 00:50:23;;;;;;;8.93;2.65;;;3.00;99.90;;;;;;4975959;28;20058;-66
2022/04/10 00:52:50;;;;;;;18.30;4.82;;;3.00;99.90;;;;;;5002269;28;20184;-65
2022/04/10 00:55:18;;;;;;;6.55;2.70;;;3.00;99.90;;;;;;4977580;28;20101;-67
2022/04/10 00:57:45;;;;;;;9.77;2.67;;;3.00;99.90;;;;;;4980025;28;20045;-66
2022/04/10 01:00:14;;;;;;;11.68;2.90;;;3.00;99.90;;;;;;4985403;28;20121;-65
2022/04/10 01:02:42;;;;;;;12.07;3.38;;;3.00;99.90;;;;;;4981009;28;20169;-64
2022/04/10 01:05:09;;;;;;;12.40;4.35;;;3.00;99.90;;;;;;4976113;28;20146;-68
2022/04/10 01:07:37;;;;;;;7.68;3.08;;;2.90;99.90;;;;;;4978188;28;20535;-66
2022/04/10 01:10:07;;;;;;;11.85;2.97;;;3.00;99.90;;;;;;4984977;28;20316;-65
2022/04/10 01:12:35;;;;;;;11.77;3.85;;;2.90;99.90;;;;;;4977705;28;20129;-65
2022/04/10 01:15:09;;;;;;;10.65;2.95;;;2.90;99.90;;;;;;4977758;28;20149;-65
2022/04/10 01:17:40;;;;;;;6.97;4.88;;;2.90;99.90;;;;;;4980197;28;20444;-68
2022/04/10 01:20:09;;;;;;;9.88;3.42;;;2.90;99.90;;;;;;4985373;28;20679;-64
2022/04/10 01:22:40;;;;;;;13.95;3.25;;;2.90;99.90;;;;;;4974455;28;20160;-67
2022/04/10 01:25:12;;;;;;;8.60;3.58;;;2.90;99.90;;;;;;4979757;28;20049;-64
2022/04/10 01:27:42;;;;;;;10.23;2.60;;;2.90;99.90;;;;;;4980925;28;20054;-67
2022/04/10 01:30:12;;;;;;;9.73;2.85;;;2.90;99.90;;;;;;4976838;28;20115;-67
2022/04/10 01:32:41;;;;;;;9.48;3.75;;;2.90;99.90;;;;;;4975268;28;20065;-65
2022/04/10 01:35:10;;;;;;;8.02;3.53;;;2.90;99.90;;;;;;4971701;28;20050;-66
2022/04/10 01:37:38;;;;;;;10.38;3.78;;;2.90;99.90;;;;;;4987204;28;20070;-66
2022/04/10 01:40:10;;;;;;;11.60;4.35;;;2.90;99.90;;;;;;4994633;28;20637;-65
2022/04/10 01:42:38;;;;;;;10.98;3.70;;;2.90;99.90;;;;;;4996251;28;20046;-64
2022/04/10 01:45:05;;;;;;;20.65;3.33;;;2.90;99.90;;;;;;4977282;28;20038;-63
2022/04/10 01:47:32;;;;;;;16.75;4.30;;;2.90;99.90;;;;;;4972084;28;20061;-64
2022/04/10 01:50:00;;;;;;;10.35;3.05;;;2.90;99.90;;;;;;4972674;28;20054;-64
2022/04/10 01:52:27;;;;;;;9.98;3.35;;;2.90;99.90;;;;;;4978157;28;20105;-65
2022/04/10 01:54:54;;;;;;;13.63;4.20;;;2.90;99.90;;;;;;4971915;28;21093;-63
2022/04/10 01:57:22;;;;;;;8.98;3.63;;;2.90;99.90;;;;;;4998854;28;20148;-67
2022/04/10 01:59:48;;;;;;;13.75;3.72;;;3.00;99.90;;;;;;4992040;28;20075;-64
2022/04/10 02:02:15;;;;;;;15.63;2.92;;;3.00;99.90;;;;;;5008628;28;20400;-64
2022/04/10 02:04:43;;;;;;;29.73;4.75;;;3.00;99.90;;;;;;4978547;28;20070;-65
2022/04/10 02:07:10;;;;;;;15.38;3.35;;;3.00;99.90;;;;;;4982884;28;20057;-67
2022/04/10 02:09:36;;;;;;;15.23;4.50;;;3.00;99.90;;;;;;4968028;28;20146;-65
2022/04/10 02:12:04;;;;;;;14.93;3.15;;;3.00;99.90;;;;;;4979070;28;20046;-65
2022/04/10 02:14:31;;;;;;;10.70;4.43;;;3.10;99.90;;;;;;4967784;28;20054;-65
2022/04/10 02:16:59;;;;;;;8.98;3.67;;;3.00;99.90;;;;;;4986715;28;20042;-65
2022/04/10 02:19:26;;;;;;;10.75;3.47;;;3.10;99.90;;;;;;4973207;28;20043;-67
2022/04/10 02:21:57;;;;;;;9.85;3.80;;;3.10;99.90;;;;;;4973463;28;20042;-64
2022/04/10 02:24:24;;;;;;;13.45;4.30;;;3.00;99.90;;;;;;4985206;28;20057;-64
2022/04/10 02:26:51;;;;;;;14.73;4.32;;;3.10;99.90;;;;;;4976644;28;20085;-65
2022/04/10 02:29:18;;;;;;;8.98;3.10;;;3.10;99.90;;;;;;4976887;28;20484;-64
2022/04/10 02:31:45;;;;;;;14.40;3.72;;;3.10;99.90;;;;;;4966814;28;20128;-65
2022/04/10 02:34:12;;;;;;;11.82;3.47;;;3.10;99.90;;;;;;4976217;28;20050;-64
2022/04/10 02:36:39;;;;;;;9.82;3.75;;;3.00;99.90;;;;;;4998649;28;20518;-66
2022/04/10 02:39:06;;;;;;;14.77;4.65;;;3.00;99.90;;;;;;4977365;28;20043;-66
2022/04/10 02:41:33;;;;;;;12.25;3.17;;;3.00;99.90;;;;;;4969130;28;20049;-64
2022/04/10 02:44:00;;;;;;;8.02;2.38;;;2.90;99.90;;;;;;4967502;28;20077;-64
2022/04/10 02:46:27;;;;;;;9.88;2.95;;;2.90;99.90;;;;;;4969729;28;20049;-67
2022/04/10 02:48:55;;;;;;;9.63;3.08;;;2.90;99.90;;;;;;4999928;28;20058;-65
2022/04/10 02:51:22;;;;;;;8.63;2.22;;;2.80;99.90;;;;;;4968123;28;20066;-65
2022/04/10 02:53:52;;;;;;;;;;;2.80;99.90;;;;;;4971447;28;20108;-65
2022/04/10 02:56:20;;;;;;;10.43;3.05;;;2.80;99.90;;;;;;4976272;28;20093;-65
2022/04/10 02:58:47;;;;;;;11.85;4.15;;;2.80;99.90;;;;;;4972762;28;20043;-64
2022/04/10 03:01:14;;;;;;;12.57;3.33;;;2.70;99.90;;;;;;4977461;28;20042;-65
2022/04/10 03:03:41;;;;;;;8.93;2.90;;;2.80;99.90;;;;;;4978449;28;20445;-64
2022/04/10 03:06:09;;;;;;;15.05;3.70;;;2.80;99.90;;;;;;4974235;28;20093;-67
2022/04/10 03:08:37;;;;;;;15.02;5.07;;;2.70;99.90;;;;;;4976450;28;20142;-65
2022/04/10 03:11:04;;;;;;;14.27;4.68;;;2.70;99.90;;;;;;4968074;28;20070;-66
2022/04/10 03:13:32;;;;;;;9.95;2.80;;;2.70;99.90;;;;;;4976380;28;21851;-64
2022/04/10 03:16:00;;;;;;;11.75;2.53;;;2.70;99.90;;;;;;4968877;28;20055;-66
2022/04/10 03:18:28;;;;;;;15.15;3.25;;;2.70;99.90;;;;;;4986654;28;20039;-64
2022/04/10 03:20:55;;;;;;;11.95;2.72;;;2.70;99.90;;;;;;4965295;28;20061;-65
2022/04/10 03:23:24;;;;;;;6.70;2.05;;;2.60;99.90;;;;;;4972725;28;20057;-65
2022/04/10 03:25:52;;;;;;;8.70;2.88;;;2.60;99.90;;;;;;4978105;28;20074;-65
2022/04/10 03:28:19;;;;;;;10.52;2.97;;;2.60;99.90;;;;;;4983330;28;20074;-65
2022/04/10 03:30:46;;;;;;;7.47;3.33;;;2.60;99.90;;;;;;4968556;28;20121;-65
2022/04/10 03:33:14;;;;;;;14.25;3.10;;;2.50;99.90;;;;;;4976250;28;20354;-69
2022/04/10 03:35:41;;;;;;;7.95;3.20;;;2.50;99.90;;;;;;4973339;28;20126;-66
2022/04/10 03:38:10;;;;;;;8.88;3.08;;;2.50;99.90;;;;;;4977072;28;20049;-67
2022/04/10 03:40:37;;;;;;;11.57;2.60;;;2.50;99.90;;;;;;4998273;28;20046;-69
2022/04/10 03:43:04;;;;;;;5.63;2.30;;;2.50;99.90;;;;;;5005279;28;20133;-66
2022/04/10 03:45:31;;;;;;;15.77;2.55;;;2.50;99.90;;;;;;4989407;28;20046;-63
2022/04/10 03:47:58;;;;;;;11.23;4.05;;;2.50;99.90;;;;;;5002546;28;20504;-68
2022/04/10 03:50:29;;;;;;;7.30;3.05;;;2.50;99.90;;;;;;4973211;28;20054;-64
2022/04/10 03:52:57;;;;;;;9.93;3.45;;;2.50;99.90;;;;;;4972327;28;20161;-64
2022/04/10 03:55:24;;;;;;;16.45;4.00;;;2.50;99.90;;;;;;4976800;28;20113;-67
2022/04/10 03:57:54;;;;;;;7.93;2.17;;;2.50;99.90;;;;;;4972937;28;20054;-65
2022/04/10 04:00:21;;;;;;;12.73;2.85;;;2.50;99.90;;;;;;4978878;28;20065;-64
2022/04/10 04:02:55;;;;;;;7.75;2.55;;;2.50;99.90;;;;;;4970693;28;20074;-64
2022/04/10 04:05:26;;;;;;;8.10;4.28;;;2.50;99.90;;;;;;5015028;28;20460;-64
2022/04/10 04:07:54;;;;;;;8.25;2.40;;;2.50;99.90;;;;;;5013109;28;20064;-63
2022/04/10 04:10:25;;;;;;;5.90;2.85;;;2.50;99.90;;;;;;5011208;28;20046;-65
2022/04/10 04:12:53;;;;;;;11.13;3.10;;;2.50;99.90;;;;;;4976730;28;20310;-66
2022/04/10 04:15:20;;;;;;;10.40;2.72;;;2.50;99.90;;;;;;4995197;28;20050;-68
2022/04/10 04:17:48;;;;;;;7.25;2.08;;;2.50;99.90;;;;;;5012551;28;20070;-65
2022/04/10 04:20:15;;;;;;;6.60;1.77;;;2.50;99.90;;;;;;4980476;28;20059;-64
2022/04/10 04:22:43;;;;;;;9.30;2.38;;;2.50;99.90;;;;;;4979368;28;20377;-65
2022/04/10 04:25:10;;;;;;;8.43;2.80;;;2.50;99.90;;;;;;5015250;28;20534;-66
2022/04/10 04:27:38;;;;;;;12.90;3.17;;;2.50;99.90;;;;;;4982648;28;20046;-66
2022/04/10 04:30:06;;;;;;;9.43;2.25;;;2.50;99.90;;;;;;5008427;28;20066;-66
2022/04/10 04:32:36;;;;;;;4.60;2.00;;;2.50;99.90;;;;;;4977770;28;20046;-66
2022/04/10 04:35:03;;;;;;;10.82;2.40;;;2.50;99.90;;;;;;4974146;28;20338;-65
2022/04/10 04:37:31;;;;;;;12.38;2.55;;;2.60;99.90;;;;;;5007649;28;20046;-67
2022/04/10 04:39:58;;;;;;;11.35;2.92;;;2.60;99.90;;;;;;4983138;28;20054;-64
2022/04/10 04:42:25;;;;;;;10.30;2.70;;;2.50;99.90;;;;;;4974399;28;20058;-65
2022/04/10 04:44:52;;;;;;;10.05;1.95;;;2.60;99.90;;;;;;4972226;28;20050;-64
2022/04/10 04:47:20;;;;;;;5.03;1.80;;;2.60;99.90;;;;;;5005782;28;20046;-67
2022/04/10 04:49:47;;;;;;;9.57;3.00;;;2.60;99.90;;;;;;4972641;28;20047;-65
2022/04/10 04:52:16;;;;;;;15.27;3.92;;;2.70;99.90;;;;;;4999796;28;20078;-65
2022/04/10 04:54:43;;;;;;;6.25;2.25;;;2.70;99.90;;;;;;4982678;28;20038;-65
2022/04/10 04:57:10;;;;;;;11.38;3.03;;;2.70;99.90;;;;;;4979367;28;20101;-66
2022/04/10 04:59:40;;;;;;;11.30;2.03;;;2.70;99.90;;;;;;5009257;28;20124;-64
2022/04/10 05:02:08;;;;;;;5.82;3.20;;;2.80;99.90;;;;;;4987812;28;20128;-65
2022/04/10 05:04:36;;;;;;;9.65;2.13;;;2.80;99.90;;;;;;5001892;28;20560;-68
2022/04/10 05:07:04;;;;;;;14.82;2.28;;;2.80;99.90;;;;;;4985070;28;20042;-63
2022/04/10 05:09:32;;;;;;;9.65;2.25;;;2.80;99.90;;;;;;5006806;28;20050;-65
2022/04/10 05:11:59;;;;;;;12.30;2.20;;;2.80;99.90;;;;;;4974276;28;20045;-65
2022/04/10 05:14:26;;;;;;;9.05;2.00;;;2.90;99.90;;;;;;4975286;28;20515;-64
2022/04/10 05:16:55;;;;;;;8.90;1.50;;;2.90;99.90;;;;;;4975596;28;20097;-64
2022/04/10 05:19:23;;;;;;;8.98;2.53;;;2.90;99.90;;;;;;4975013;28;20153;-66
2022/04/10 05:21:51;;;;;;;10.98;1.77;;;3.00;99.90;;;;;;5009719;28;20133;-63
2022/04/10 05:24:19;;;;;;;5.72;1.90;;;2.90;99.90;;;;;;5005464;28;20046;-65
2022/04/10 05:26:46;;;;;;;6.20;1.75;;;3.00;99.90;;;;;;4979281;28;20172;-66
2022/04/10 05:29:14;;;;;;;8.63;1.98;;;3.00;99.90;;;;;;4976972;28;20066;-64
2022/04/10 05:31:42;;;;;;;4.38;1.35;;;3.10;99.90;;;;;;4971603;28;20042;-65
2022/04/10 05:34:09;;;;;;;8.25;1.88;;;3.10;99.90;;;;;;4970171;28;20120;-66
2022/04/10 05:36:36;;;;;;;9.93;2.42;;;3.10;99.90;;;;;;4964715;28;20199;-65
2022/04/10 05:39:04;;;;;;;10.02;2.15;;;3.10;99.90;;;;;;4974931;28;20456;-64
2022/04/10 05:41:32;;;;;;;4.78;1.92;;;3.10;99.90;;;;;;4975634;28;20061;-67
2022/04/10 05:44:05;;;;;;;6.97;2.25;;;3.10;99.90;;;;;;4970341;28;20050;-63
2022/04/10 05:46:32;;;;;;;10.15;1.80;;;3.10;99.90;;;;;;4972333;28;20764;-64
2022/04/10 05:49:02;;;;;;;4.73;2.37;;;3.20;99.90;;;;;;4960508;28;20076;-64
2022/04/10 05:51:29;;;;;;;6.82;2.47;;;3.20;99.90;;;;;;4969358;28;20255;-63
2022/04/10 05:53:56;;;;;;;4.38;1.73;;;3.20;99.90;;;;;;4980401;28;20050;-66
2022/04/10 05:56:25;;;;;;;5.45;2.70;;;3.20;99.90;;;;;;4986126;28;20162;-63
2022/04/10 05:58:52;;;;;;;9.95;3.60;;;3.20;99.90;;;;;;4964860;28;20054;-64
2022/04/10 06:01:20;;;;;;;11.90;2.13;;;3.30;99.90;;;;;;4976901;28;20041;-64
2022/04/10 06:03:49;;;;;;;5.22;1.75;;;3.30;99.90;;;;;;4982087;28;20229;-63
2022/04/10 06:06:18;;;;;;;5.75;1.20;;;3.40;99.90;;;;;;4979448;28;20042;-64
2022/04/10 06:08:50;;;;;;;7.43;2.25;;;3.40;99.90;;;;;;4973873;28;20150;-67
2022/04/10 06:11:17;;;;;;;10.93;2.08;;;3.40;99.90;;;;;;5011880;28;20092;-64
2022/04/10 06:13:44;;;;;;;7.28;2.63;;;3.40;99.90;;;;;;4971670;28;20248;-65
2022/04/10 06:16:15;;;;;;;4.20;1.52;;;3.40;99.90;;;;;;4970041;28;20047;-67
2022/04/10 06:18:45;;;;;;;3.40;1.65;;;3.40;99.90;;;;;;4999071;28;20141;-64
2022/04/10 06:21:12;;;;;;;8.82;2.13;;;3.40;99.90;;;;;;4980354;28;20065;-66
2022/04/10 06:23:42;;;;;;;9.57;1.60;;;3.50;99.90;;;;;;4980697;28;20050;-66
2022/04/10 06:26:15;;;;;;;9.05;2.08;;;3.50;99.90;;;;;;4978924;28;20050;-63
2022/04/10 06:28:43;;;;;;;7.28;2.47;;;3.50;99.90;;;;;;4987707;28;20051;-65
2022/04/10 06:31:16;;;;;;;3.40;1.58;;;3.50;99.90;;;;;;4986815;28;20134;-64
2022/04/10 06:33:43;;;;;;;6.63;1.48;;;3.50;99.90;;;;;;5008315;28;20054;-65
2022/04/10 06:36:10;;;;;;;4.82;1.92;;;3.50;99.90;;;;;;4978004;28;20054;-67
2022/04/10 06:38:37;;;;;;;6.32;1.75;;;3.60;99.90;;;;;;4994233;28;20058;-64
2022/04/10 06:41:09;;;;;;;7.93;1.88;;;3.60;99.90;;;;;;4969929;28;20070;-64
2022/04/10 06:43:37;;;;;;;7.47;1.42;;;3.60;99.90;;;;;;4960057;28;20133;-65
2022/04/10 06:46:06;;;;;;;5.25;1.80;;;3.70;99.90;;;;;;4976385;28;20046;-64
2022/04/10 06:48:40;;;;;;;5.80;1.95;;;3.70;99.90;;;;;;4984830;28;20056;-64
2022/04/10 06:51:07;;;;;;;8.50;1.40;;;3.70;99.90;;;;;;4973261;28;20097;-68
2022/04/10 06:53:34;;;;;;;12.32;2.13;;;3.80;99.90;;;;;;4979403;28;20045;-65
2022/04/10 06:56:02;;;;;;;10.85;2.40;;;3.80;99.90;;;;;;5006583;28;20070;-64
2022/04/10 06:58:35;;;;;;;4.85;1.83;;;3.80;99.90;;;;;;4969276;28;20046;-65
2022/04/10 07:01:02;;;;;;;5.30;2.22;;;3.80;99.90;;;;;;5005014;28;20112;-65
2022/04/10 07:03:29;;;;;;;9.25;1.75;;;3.90;99.90;;;;;;4974408;28;20710;-67
2022/04/10 07:05:59;;;;;;;5.97;1.58;;;3.90;99.90;;;;;;4967702;28;20043;-64
2022/04/10 07:08:32;;;;;;;6.82;1.52;;;3.90;99.90;;;;;;4970966;28;20054;-66
2022/04/10 07:10:59;;;;;;;4.95;1.60;;;4.00;99.90;;;;;;5006050;28;20046;-64
2022/04/10 07:13:28;;;;;;;1.73;0.95;;;4.00;99.90;;;;;;5010811;28;20055;-65
2022/04/10 07:15:57;;;;;;;3.83;1.98;;;4.00;99.90;;;;;;4983702;28;20066;-64
2022/04/10 07:18:24;;;;;;;7.13;1.95;;;4.10;99.90;;;;;;4976423;28;20137;-65
2022/04/10 07:20:54;;;;;;;5.22;2.10;;;4.10;99.90;;;;;;5008283;28;20042;-63
2022/04/10 07:26:14;;;;;;;11.10;2.50;;;4.10;99.90;;;;;;4983684;28;20077;-64
2022/04/10 07:28:42;;;;;;;5.82;2.67;;;4.10;99.90;;;;;;5001442;28;20477;-68
2022/04/10 07:31:10;;;;;;;6.70;1.50;;;4.10;99.90;;;;;;5008325;28;20051;-64
2022/04/10 07:33:39;;;;;;;5.38;1.45;;;4.20;99.90;;;;;;4974811;28;20046;-64
2022/04/10 07:36:18;;;;;;;3.47;2.30;;;4.20;99.90;;;;;;5012878;28;20862;-67
2022/04/10 07:38:45;;;;;;;6.38;1.85;;;4.30;99.90;;;;;;4978024;28;20049;-66
2022/04/10 07:41:18;;;;;;;8.88;1.70;;;4.20;99.90;;;;;;4975906;28;20058;-64
2022/04/10 07:43:49;;;;;;;5.35;1.75;;;4.30;99.90;;;;;;4976091;28;20429;-66
2022/04/10 07:49:07;;;;;;;9.98;1.70;;;4.40;99.90;;;;;;4976350;28;20042;-64
2022/04/10 07:51:43;;;;;;;5.80;2.33;;;4.40;99.90;;;;;;4972641;28;20042;-64
2022/04/10 07:54:18;;;;;;;3.85;1.90;;;4.40;99.90;;;;;;4976197;28;20046;-65
2022/04/10 07:56:46;;;;;;;3.70;1.67;;;4.40;99.90;;;;;;5009224;28;20437;-63
2022/04/10 07:59:17;;;;;;;8.57;2.05;;;4.40;99.90;;;;;;4992880;28;20046;-65
2022/04/10 08:01:45;;;;;;;3.63;2.05;;;4.50;99.90;;;;;;4971197;28;20433;-63
2022/04/10 08:04:19;;;;;;;5.05;2.08;;;4.60;99.90;;;;;;4979812;28;20510;-64
2022/04/10 08:07:05;;;;;;;6.53;1.30;;;4.60;99.90;;;;;;4982669;28;20054;-63
2022/04/10 08:09:34;;;;;;;6.22;2.05;;;4.60;99.90;;;;;;4974055;28;20146;-67
2022/04/10 08:12:01;;;;;;;4.65;2.05;;;4.60;99.90;;;;;;4972492;28;20180;-65
2022/04/10 08:14:28;;;;;;;8.80;2.55;;;4.60;99.90;;;;;;4978577;28;20081;-64
2022/04/10 08:16:54;;;;;;;5.07;1.40;;;4.70;99.90;;;;;;4972990;28;20137;-64
2022/04/10 08:19:22;;;;;;;3.90;1.65;;;4.70;99.90;;;;;;4981703;28;20133;-64
2022/04/10 08:21:49;;;;;;;3.65;1.00;;;4.60;99.90;;;;;;4979874;28;20080;-63
2022/04/10 08:24:15;;;;;;;10.57;2.40;;;4.70;99.90;;;;;;4981422;28;20077;-63
2022/04/10 08:26:43;;;;;;;7.78;1.67;;;4.80;99.90;;;;;;4980196;28;20133;-63
2022/04/10 08:29:10;;;;;;;3.17;1.48;;;4.80;99.90;;;;;;4974213;28;20042;-63
2022/04/10 08:31:36;;;;;;;13.80;2.13;;;4.80;99.90;;;;;;4974147;28;20134;-65
2022/04/10 08:34:04;;;;;;;10.20;2.33;;;4.90;99.90;;;;;;4980915;28;20046;-65
2022/04/10 08:36:32;;;;;;;5.75;1.55;;;4.80;99.90;;;;;;4974975;28;20068;-64
2022/04/10 08:38:59;;;;;;;9.02;2.25;;;4.80;99.90;;;;;;4977872;28;20089;-63
2022/04/10 08:41:31;;;;;;;4.00;1.58;;;4.90;99.90;;;;;;4980830;28;20334;-64
2022/04/10 08:44:02;;;;;;;10.35;1.27;;;4.90;99.90;;;;;;4973258;28;20353;-63
2022/04/10 08:46:31;;;;;;;6.47;1.90;;;5.00;99.90;;;;;;4983592;28;20069;-67
2022/04/10 08:48:58;;;;;;;5.70;1.77;;;5.00;99.90;;;;;;4975953;28;20043;-65
2022/04/10 08:51:27;;;;;;;8.05;2.00;;;5.00;99.90;;;;;;4979448;28;20047;-63
2022/04/10 08:53:55;;;;;;;4.60;1.80;;;5.10;99.90;;;;;;4978894;28;20077;-68
2022/04/10 08:56:23;;;;;;;9.05;1.42;;;5.20;99.90;;;;;;4974852;28;20066;-65
2022/04/10 08:58:50;;;;;;;15.00;2.45;;;5.30;99.90;;;;;;4975225;28;20050;-64
2022/04/10 09:01:22;;;;;;;5.32;1.70;;;5.40;99.90;;;;;;4980470;28;20054;-68
2022/04/10 09:03:49;;;;;;;4.93;1.88;;;5.40;99.90;;;;;;4980474;28;20136;-64
2022/04/10 09:06:16;;;;;;;7.75;2.25;;;5.50;99.90;;;;;;4982132;28;20048;-66
2022/04/10 09:08:44;;;;;;;12.55;1.92;;;5.60;99.90;;;;;;4981480;28;20761;-64
2022/04/10 09:11:12;;;;;;;3.80;1.80;;;5.50;99.90;;;;;;4988097;28;20177;-64
2022/04/10 09:13:46;;;;;;;7.45;2.03;;;5.50;99.90;;;;;;4988518;28;20073;-65
2022/04/10 09:16:16;;;;;;;8.75;2.47;;;5.40;99.90;;;;;;4973429;28;20041;-65
2022/04/10 09:18:49;;;;;;;5.82;1.73;;;5.40;99.90;;;;;;4981347;28;20062;-64
2022/04/10 09:21:18;;;;;;;2.83;1.98;;;5.40;99.90;;;;;;4984892;28;20092;-66
2022/04/10 09:23:56;;;;;;;4.72;1.35;;;5.30;99.90;;;;;;4976797;28;20045;-64
2022/04/10 09:26:23;;;;;;;4.85;1.63;;;5.50;99.90;;;;;;4984727;28;20046;-65
2022/04/10 09:28:51;;;;;;;6.45;1.85;;;5.50;99.90;;;;;;4973743;28;20213;-64
2022/04/10 09:31:29;;;;;;;8.23;1.42;;;5.50;99.90;;;;;;4972783;28;20058;-63
2022/04/10 09:33:58;;;;;;;3.72;1.08;;;5.40;99.90;;;;;;4972274;28;20073;-66
2022/04/10 09:36:33;;;;;;;6.33;1.57;;;5.50;99.90;;;;;;4976519;28;20081;-65
2022/04/10 09:39:02;;;;;;;11.02;1.88;;;5.50;99.90;;;;;;4977681;28;20066;-63
2022/04/10 09:41:29;;;;;;;11.75;2.17;;;5.60;99.90;;;;;;4976617;28;20133;-67
2022/04/10 09:44:11;;;;;;;6.85;1.63;;;5.70;99.90;;;;;;4972466;28;20080;-62
2022/04/10 09:46:39;;;;;;;7.35;2.15;;;5.80;99.90;;;;;;4971864;28;20438;-63
2022/04/10 09:49:17;;;;;;;6.20;2.60;;;5.90;99.90;;;;;;4971875;28;20074;-64
2022/04/10 09:51:58;;;;;;;5.70;1.52;;;6.00;99.90;;;;;;4970829;28;20164;-67
2022/04/10 09:54:25;;;;;;;10.95;1.83;;;6.00;99.90;;;;;;4975918;28;20104;-63
2022/04/10 09:56:54;;;;;;;4.93;2.00;;;6.20;99.90;;;;;;4981974;28;20070;-65
2022/04/10 09:59:26;;;;;;;5.40;1.73;;;6.10;99.90;;;;;;4975783;28;20048;-64
2022/04/10 10:01:54;;;;;;;10.07;1.33;;;6.20;99.90;;;;;;4981271;28;20122;-65
2022/04/10 10:04:22;;;;;;;16.92;2.08;;;6.10;99.90;;;;;;4972176;28;20533;-67
2022/04/10 10:06:50;;;;;;;27.58;3.40;;;6.20;99.90;;;;;;4974688;28;20078;-63
2022/04/10 10:09:17;;;;;;;2.55;1.63;;;6.10;99.90;;;;;;4969189;28;20046;-66
2022/04/10 10:11:44;;;;;;;4.93;1.50;;;6.20;99.90;;;;;;4973018;28;20548;-65
2022/04/10 10:14:12;;;;;;;4.82;1.65;;;6.20;99.90;;;;;;4969707;28;20613;-67
2022/04/10 10:16:41;;;;;;;6.25;1.65;;;6.40;99.90;;;;;;4982134;28;20053;-64
2022/04/10 10:19:08;;;;;;;7.18;2.10;;;6.60;99.90;;;;;;4974957;28;20057;-65
2022/04/10 10:21:36;;;;;;;6.10;1.55;;;6.80;99.90;;;;;;4968490;28;20482;-65
2022/04/10 10:24:05;;;;;;;6.32;1.08;;;6.90;99.90;;;;;;4973912;28;20146;-64
2022/04/10 10:26:39;;;;;;;6.88;1.10;;;7.00;99.90;;;;;;4977489;28;20418;-67
2022/04/10 10:29:31;;;;;;;7.47;3.85;;;7.10;99.90;;;;;;4980798;28;20046;-63
2022/04/10 10:32:12;;;;;;;8.25;1.75;;;7.20;99.90;;;;;;4981266;28;20150;-65
2022/04/10 10:34:42;;;;;;;6.60;1.38;;;7.40;99.90;;;;;;4969293;28;20066;-63
2022/04/10 10:37:13;;;;;;;4.63;1.53;;;7.60;99.90;;;;;;4973881;28;20055;-63
2022/04/10 10:39:49;;;;;;;4.57;0.95;;;7.90;99.90;;;;;;4978864;28;20193;-64
2022/04/10 10:42:16;;;;;;;2.55;0.90;;;8.00;99.90;;;;;;4979629;28;20050;-64
2022/04/10 10:44:47;;;;;;;3.67;1.60;;;8.00;99.90;;;;;;4966678;28;20051;-64
2022/04/10 10:47:26;;;;;;;3.38;1.15;;;8.00;99.90;;;;;;4980181;28;20034;-65
2022/04/10 10:49:54;;;;;;;3.83;1.02;;;8.10;99.90;;;;;;4983432;28;20077;-63
2022/04/10 10:52:21;;;;;;;2.40;1.42;;;8.10;99.90;;;;;;4978077;28;20537;-64
2022/04/10 10:54:53;;;;;;;1.30;1.00;;;8.10;99.90;;;;;;4970259;28;20584;-67
2022/04/10 10:57:32;;;;;;;4.63;1.05;;;8.20;99.90;;;;;;4970240;28;20043;-66
2022/04/10 11:00:04;;;;;;;5.03;1.83;;;8.20;99.90;;;;;;4982905;28;20042;-64
2022/04/10 11:02:35;;;;;;;3.67;1.25;;;8.30;99.90;;;;;;4972621;28;20059;-63
2022/04/10 11:05:34;;;;;;;3.25;1.08;;;8.50;99.90;;;;;;4965114;28;20066;-65
2022/04/10 11:08:02;;;;;;;1.58;0.93;;;8.40;99.90;;;;;;4968878;28;20444;-64
2022/04/10 11:10:31;;;;;;;4.63;1.48;;;8.40;99.90;;;;;;4968887;28;20134;-64
2022/04/10 11:13:06;;;;;;;2.42;0.70;;;8.30;99.90;;;;;;4976420;28;20134;-66
2022/04/10 11:15:55;;;;;;;7.43;0.85;;;8.30;99.90;;;;;;4979089;28;20046;-64
2022/04/10 11:18:23;;;;;;;8.35;1.02;;;8.00;99.90;;;;;;4978222;28;20073;-64
2022/04/10 11:20:58;;;;;;;3.78;1.33;;;8.10;99.90;;;;;;4978455;28;20137;-63
2022/04/10 11:23:30;;;;;;;6.15;1.02;;;8.10;99.90;;;;;;4976233;28;20045;-63
2022/04/10 11:26:02;;;;;;;1.60;0.77;;;8.20;99.90;;;;;;4982745;28;20046;-65
2022/04/10 11:28:31;;;;;;;3.05;0.73;;;8.40;99.90;;;;;;4981024;28;20056;-63
2022/04/10 11:31:01;;;;;;;4.63;1.27;;;8.60;99.90;;;;;;4979779;28;20043;-64
2022/04/10 11:33:46;;;;;;;;;;;8.70;99.90;;;;;;4973925;28;20074;-64
2022/04/10 11:36:18;;;;;;;1.48;1.02;;;8.70;99.90;;;;;;4970876;28;19968;-64
2022/04/10 11:39:10;;;;;;;1.80;0.63;;;8.80;99.90;;;;;;4976638;28;20129;-63
2022/04/10 11:41:40;;;;;;;3.47;0.80;;;8.90;99.90;;;;;;4976625;28;20997;-63
2022/04/10 11:44:08;;;;;;;2.13;0.57;;;8.90;99.90;;;;;;4982437;28;20144;-65
2022/04/10 11:46:36;;;;;;;6.72;1.20;;;8.90;99.90;;;;;;4980134;28;20136;-66
2022/04/10 11:49:03;;;;;;;5.60;1.02;;;8.90;99.90;;;;;;4982462;28;20397;-65
2022/04/10 11:51:30;;;;;;;3.83;1.67;;;8.70;99.90;;;;;;4982288;28;20064;-64
2022/04/10 11:54:00;;;;;;;4.00;2.42;;;8.60;99.90;;;;;;4974122;28;20082;-68
2022/04/10 11:56:27;;;;;;;5.93;0.88;;;8.70;99.90;;;;;;4987380;28;20078;-66
2022/04/10 11:58:54;;;;;;;2.38;0.90;;;8.70;99.90;;;;;;4968041;28;20058;-69
2022/04/10 12:01:21;;;;;;;5.65;1.20;;;8.50;99.90;;;;;;4970999;28;20134;-63
2022/04/10 12:03:49;;;;;;;3.53;1.35;;;8.50;99.90;;;;;;4994968;28;20112;-64
2022/04/10 12:06:20;;;;;;;4.03;1.20;;;8.40;99.90;;;;;;4998163;28;20038;-65
2022/04/10 12:08:48;;;;;;;4.45;1.20;;;8.30;99.90;;;;;;4957028;28;20417;-65
2022/04/10 12:11:15;;;;;;;3.05;1.02;;;8.30;99.90;;;;;;4974626;28;20070;-65
2022/04/10 12:13:42;;;;;;;6.47;1.40;;;8.20;99.90;;;;;;4978373;28;20204;-64
2022/04/10 12:16:19;;;;;;;6.15;1.25;;;8.10;99.90;;;;;;4984370;28;20493;-64
2022/04/10 12:18:48;;;;;;;3.80;0.93;;;8.10;99.90;;;;;;4973597;28;20047;-64
2022/04/10 12:21:16;;;;;;;4.70;1.50;;;8.10;99.90;;;;;;4977509;28;20061;-64
2022/04/10 12:23:45;;;;;;;2.88;0.95;;;8.10;99.90;;;;;;4979869;28;20069;-65
2022/04/10 12:26:13;;;;;;;1.40;0.75;;;8.20;99.90;;;;;;4983187;28;20133;-67
2022/04/10 12:28:42;;;;;;;4.25;0.80;;;8.30;99.90;;;;;;4981857;28;20134;-68
2022/04/10 12:31:11;;;;;;;2.38;0.60;;;8.30;99.90;;;;;;4983758;28;20061;-63
2022/04/10 12:33:38;;;;;;;2.65;0.77;;;8.30;99.90;;;;;;4974881;28;20170;-65
2022/04/10 12:36:16;;;;;;;2.08;0.80;;;8.30;99.90;;;;;;4978494;28;20511;-65
2022/04/10 12:38:43;;;;;;;3.75;1.00;;;8.30;99.90;;;;;;4975808;28;20133;-66
2022/04/10 12:41:10;;;;;;;4.13;1.20;;;8.30;99.90;;;;;;4985609;28;20082;-67
2022/04/10 12:43:37;;;;;;;3.10;1.08;;;8.30;99.90;;;;;;4984020;28;20042;-64
2022/04/10 12:46:09;;;;;;;2.55;0.68;;;8.40;99.90;;;;;;4979761;28;20050;-63
2022/04/10 12:48:37;;;;;;;4.18;0.82;;;8.40;99.90;;;;;;4978330;28;20364;-64
2022/04/10 12:51:08;;;;;;;0.55;0.40;;;8.30;99.90;;;;;;4973221;28;20610;-64
2022/04/10 12:53:36;;;;;;;1.50;0.80;;;8.40;99.90;;;;;;4978340;28;20066;-68
2022/04/10 12:56:05;;;;;;;2.05;0.50;;;8.40;99.90;;;;;;4980022;28;20078;-69
2022/04/10 12:58:47;;;;;;;3.45;0.90;;;8.40;99.90;;;;;;4979070;28;20457;-63
2022/04/10 13:01:24;;;;;;;1.63;0.65;;;8.30;99.90;;;;;;4976954;28;20141;-64
2022/04/10 13:03:52;;;;;;;2.70;0.88;;;8.30;99.90;;;;;;4973866;28;20042;-65
2022/04/10 13:06:22;;;;;;;2.22;0.70;;;8.40;99.90;;;;;;4971740;28;20047;-63
2022/04/10 13:08:49;;;;;;;1.80;0.75;;;8.50;99.90;;;;;;4966400;28;20073;-63
2022/04/10 13:11:16;;;;;;;3.92;1.00;;;8.50;99.90;;;;;;4969703;28;20142;-64